createdAt,value
2018-04-24T00:01:35.327Z,100995
2018-04-24T00:04:03.462Z,100994
2018-04-24T00:06:32.291Z,100991
2018-04-24T00:09:00.562Z,100985
2018-04-24T00:11:29.357Z,100991
2018-04-24T00:13:58.236Z,100992
2018-04-24T00:16:27.044Z,100998
2018-04-24T00:18:55.639Z,101001
2018-04-24T00:21:23.761Z,101006
2018-04-24T00:23:52.116Z,101002
2018-04-24T00:26:21.689Z,101004
2018-04-24T00:28:50.025Z,100995
2018-04-24T00:31:18.729Z,100993
2018-04-24T00:33:47.527Z,100986
2018-04-24T00:36:16.904Z,100984
2018-04-24T00:38:46.316Z,100982
2018-04-24T00:41:14.457Z,100968
2018-04-24T00:43:44.000Z,100971
2018-04-24T00:46:12.332Z,100972
2018-04-24T00:48:42.087Z,100963
2018-04-24T00:51:10.950Z,100960
2018-04-24T00:53:41.042Z,100966
2018-04-24T00:56:09.184Z,100962
2018-04-24T00:58:38.110Z,100958
2018-04-24T01:01:06.200Z,100964
2018-04-24T01:03:35.136Z,100956
2018-04-24T01:06:03.438Z,100958
2018-04-24T01:08:32.145Z,100960
2018-04-24T01:11:00.253Z,100976
2018-04-24T01:13:28.351Z,100980
2018-04-24T01:15:56.696Z,100973
2018-04-24T01:18:25.620Z,100976
2018-04-24T01:20:53.749Z,100970
2018-04-24T01:23:22.019Z,100975
2018-04-24T01:25:51.551Z,100973
2018-04-24T01:28:20.407Z,100988
2018-04-24T01:30:49.669Z,100986
2018-04-24T01:33:17.987Z,100996
2018-04-24T01:35:46.315Z,100995
2018-04-24T01:38:15.616Z,100992
2018-04-24T01:40:43.896Z,100985
2018-04-24T01:43:12.894Z,100983
2018-04-24T01:45:42.672Z,100976
2018-04-24T01:48:12.501Z,100973
2018-04-24T01:50:41.570Z,100960
2018-04-24T01:53:09.875Z,100973
2018-04-24T01:55:38.081Z,100974
2018-04-24T01:58:06.240Z,100975
2018-04-24T02:00:36.890Z,100973
2018-04-24T02:03:04.984Z,100985
2018-04-24T02:05:33.060Z,100970
2018-04-24T02:08:01.979Z,100971
2018-04-24T02:10:30.168Z,100971
2018-04-24T02:12:59.654Z,100967
2018-04-24T02:15:28.100Z,100977
2018-04-24T02:17:57.788Z,100970
2018-04-24T02:20:27.925Z,100964
2018-04-24T02:22:57.385Z,100977
2018-04-24T02:25:26.125Z,100981
2018-04-24T02:27:54.427Z,100971
2018-04-24T02:30:23.567Z,100978
2018-04-24T02:32:51.665Z,100966
2018-04-24T02:35:20.544Z,100954
2018-04-24T02:37:48.624Z,100953
2018-04-24T02:40:17.123Z,100954
2018-04-24T02:42:45.400Z,100948
2018-04-24T02:45:14.893Z,100953
2018-04-24T02:47:43.639Z,100952
2018-04-24T02:50:15.241Z,100936
2018-04-24T02:52:44.031Z,100943
2018-04-24T02:55:12.190Z,100941
2018-04-24T02:57:41.074Z,100930
2018-04-24T03:00:09.179Z,100932
2018-04-24T03:02:37.705Z,100937
2018-04-24T03:05:06.064Z,100939
2018-04-24T03:07:35.501Z,100944
2018-04-24T03:10:03.887Z,100949
2018-04-24T03:12:32.043Z,100947
2018-04-24T03:15:00.939Z,100957
2018-04-24T03:17:30.868Z,100959
2018-04-24T03:19:59.165Z,100961
2018-04-24T03:22:28.875Z,100950
2018-04-24T03:24:58.862Z,100945
2018-04-24T03:27:27.736Z,100939
2018-04-24T03:29:56.316Z,100936
2018-04-24T03:32:25.091Z,100930
2018-04-24T03:34:53.484Z,100928
2018-04-24T03:37:22.311Z,100928
2018-04-24T03:39:55.110Z,100934
2018-04-24T03:42:23.777Z,100931
2018-04-24T03:44:51.914Z,100924
2018-04-24T03:47:21.602Z,100931
2018-04-24T03:49:49.675Z,100932
2018-04-24T03:52:17.974Z,100927
2018-04-24T03:54:46.880Z,100919
2018-04-24T03:57:15.421Z,100915
2018-04-24T03:59:44.252Z,100918
2018-04-24T04:02:13.080Z,100912
2018-04-24T04:04:42.223Z,100910
2018-04-24T04:07:11.467Z,100913
2018-04-24T04:09:40.857Z,100914
2018-04-24T04:12:09.751Z,100906
2018-04-24T04:14:37.837Z,100909
2018-04-24T04:17:23.785Z,100896
2018-04-24T04:20:10.207Z,100889
2018-04-24T04:22:56.743Z,100889
2018-04-24T04:25:26.864Z,100903
2018-04-24T04:27:55.825Z,100909
2018-04-24T04:30:24.535Z,100907
2018-04-24T04:32:54.196Z,100910
2018-04-24T04:35:22.420Z,100912
2018-04-24T04:37:51.599Z,100910
2018-04-24T04:40:20.492Z,100916
2018-04-24T04:42:48.599Z,100922
2018-04-24T04:45:17.491Z,100921
2018-04-24T04:47:46.388Z,100917
2018-04-24T04:50:14.608Z,100933
2018-04-24T04:52:43.139Z,100940
2018-04-24T04:55:12.000Z,100938
2018-04-24T04:57:40.777Z,100945
2018-04-24T05:00:09.536Z,100954
2018-04-24T05:02:37.745Z,100960
2018-04-24T05:05:06.624Z,100963
2018-04-24T05:07:35.532Z,100963
2018-04-24T05:10:03.861Z,100966
2018-04-24T05:12:32.371Z,100963
2018-04-24T05:15:01.438Z,100965
2018-04-24T05:17:30.372Z,100965
2018-04-24T05:19:59.097Z,100967
2018-04-24T05:22:27.306Z,100972
2018-04-24T05:24:56.140Z,100964
2018-04-24T05:27:24.985Z,100967
2018-04-24T05:29:53.439Z,100970
2018-04-24T05:32:21.580Z,100958
2018-04-24T05:34:50.495Z,100964
2018-04-24T05:37:18.601Z,100966
2018-04-24T05:39:46.789Z,100973
2018-04-24T05:42:15.096Z,100978
2018-04-24T05:44:44.053Z,100983
2018-04-24T05:47:13.033Z,100987
2018-04-24T05:49:41.355Z,100985
2018-04-24T05:52:09.621Z,100987
2018-04-24T05:54:38.577Z,100993
2018-04-24T05:57:07.711Z,100991
2018-04-24T05:59:35.802Z,100988
2018-04-24T06:02:04.667Z,100994
2018-04-24T06:04:35.712Z,101002
2018-04-24T06:07:04.328Z,100979
2018-04-24T06:09:32.550Z,100990
2018-04-24T06:12:00.585Z,100985
2018-04-24T06:14:28.712Z,100996
2018-04-24T06:16:59.956Z,100995
2018-04-24T06:19:28.056Z,100996
2018-04-24T06:21:56.828Z,100988
2018-04-24T06:24:25.800Z,100985
2018-04-24T06:26:54.538Z,100982
2018-04-24T06:29:22.760Z,100986
2018-04-24T06:31:50.867Z,100983
2018-04-24T06:34:19.085Z,100974
2018-04-24T06:36:47.943Z,100972
2018-04-24T06:39:16.291Z,100981
2018-04-24T06:41:47.494Z,100977
2018-04-24T06:44:15.656Z,100973
2018-04-24T06:46:44.580Z,100976
2018-04-24T06:49:13.171Z,100973
2018-04-24T06:51:42.902Z,100980
2018-04-24T06:54:10.988Z,100978
2018-04-24T06:56:39.812Z,100971
2018-04-24T06:59:07.873Z,100972
2018-04-24T07:01:36.703Z,100966
2018-04-24T07:04:05.605Z,100977
2018-04-24T07:06:33.701Z,100979
2018-04-24T07:09:02.152Z,100979
2018-04-24T07:11:31.880Z,100982
2018-04-24T07:14:00.128Z,100977
2018-04-24T07:16:28.935Z,100973
2018-04-24T07:18:59.168Z,100963
2018-04-24T07:21:27.513Z,100971
2018-04-24T07:23:56.307Z,100978
2018-04-24T07:26:25.629Z,100972
2018-04-24T07:28:54.508Z,100987
2018-04-24T07:31:22.896Z,100983
2018-04-24T07:33:52.526Z,100985
2018-04-24T07:36:20.863Z,100984
2018-04-24T07:38:49.679Z,100991
2018-04-24T07:41:17.980Z,100996
2018-04-24T07:43:46.252Z,101003
2018-04-24T07:46:14.508Z,101003
2018-04-24T07:48:43.511Z,101000
2018-04-24T07:51:11.735Z,100987
2018-04-24T07:53:40.219Z,100988
2018-04-24T07:56:09.329Z,101001
2018-04-24T07:58:37.471Z,100998
2018-04-24T08:01:05.808Z,100999
2018-04-24T08:03:34.008Z,100996
2018-04-24T08:06:02.871Z,100986
2018-04-24T08:08:31.780Z,100987
2018-04-24T08:11:00.031Z,100995
2018-04-24T08:13:28.920Z,100990
2018-04-24T08:15:58.600Z,100987
2018-04-24T08:18:27.441Z,100984
2018-04-24T08:20:56.328Z,100997
2018-04-24T08:23:24.579Z,100994
2018-04-24T08:25:53.316Z,100991
2018-04-24T08:28:22.215Z,101005
2018-04-24T08:30:51.074Z,101005
2018-04-24T08:33:19.732Z,101013
2018-04-24T08:35:47.829Z,101006
2018-04-24T08:38:16.689Z,101016
2018-04-24T08:40:45.819Z,101015
2018-04-24T08:43:14.183Z,101019
2018-04-24T08:45:43.265Z,101020
2018-04-24T08:48:12.164Z,101019
2018-04-24T08:50:42.117Z,101022
2018-04-24T08:53:11.153Z,101020
2018-04-24T08:55:40.625Z,101024
2018-04-24T08:58:10.088Z,101024
2018-04-24T09:00:38.600Z,101034
2018-04-24T09:03:07.460Z,101029
2018-04-24T09:05:35.534Z,101032
2018-04-24T09:08:04.410Z,101028
2018-04-24T09:10:34.025Z,101033
2018-04-24T09:13:02.799Z,101037
2018-04-24T09:15:30.889Z,101044
2018-04-24T09:17:59.780Z,101039
2018-04-24T09:20:28.748Z,101041
2018-04-24T09:22:57.269Z,101035
2018-04-24T09:25:26.155Z,101032
2018-04-24T09:27:55.144Z,101046
2018-04-24T09:30:24.636Z,101041
2018-04-24T09:32:55.046Z,101034
2018-04-24T09:35:28.708Z,101037
2018-04-24T09:37:58.990Z,101033
2018-04-24T09:40:27.772Z,101033
2018-04-24T09:42:56.280Z,101029
2018-04-24T09:45:24.551Z,101026
2018-04-24T09:47:53.349Z,101019
2018-04-24T09:50:21.431Z,101018
2018-04-24T09:52:49.844Z,101020
2018-04-24T09:55:17.955Z,101032
2018-04-24T09:57:47.343Z,101034
2018-04-24T10:00:22.411Z,101042
2018-04-24T10:02:51.473Z,101034
2018-04-24T10:05:19.853Z,101029
2018-04-24T10:07:48.838Z,101032
2018-04-24T10:10:16.981Z,101029
2018-04-24T10:12:45.849Z,101038
2018-04-24T10:15:14.880Z,101039
2018-04-24T10:17:43.014Z,101033
2018-04-24T10:20:11.164Z,101026
2018-04-24T10:22:40.256Z,101035
2018-04-24T10:25:09.152Z,101014
2018-04-24T10:27:38.109Z,101016
2018-04-24T10:30:07.333Z,101015
2018-04-24T10:32:35.420Z,100995
2018-04-24T10:35:05.300Z,100996
2018-04-24T10:37:34.156Z,100986
2018-04-24T10:40:02.719Z,100994
2018-04-24T10:42:31.057Z,101005
2018-04-24T10:44:59.324Z,100989
2018-04-24T10:47:28.496Z,100990
2018-04-24T10:49:56.598Z,100985
2018-04-24T10:52:25.129Z,100729
2018-04-24T10:54:53.209Z,100984
2018-04-24T10:57:21.346Z,100984
2018-04-24T10:59:50.470Z,100984
2018-04-24T11:02:18.728Z,100979
2018-04-24T11:04:46.844Z,100980
2018-04-24T11:07:15.765Z,100969
2018-04-24T11:09:44.019Z,100974
2018-04-24T11:12:15.824Z,100967
2018-04-24T11:14:44.126Z,100975
2018-04-24T11:17:12.257Z,100985
2018-04-24T11:19:41.367Z,100966
2018-04-24T11:22:09.459Z,100980
2018-04-24T11:24:38.312Z,100975
2018-04-24T11:27:06.387Z,100960
2018-04-24T11:29:35.204Z,100958
2018-04-24T11:32:03.320Z,100957
2018-04-24T11:34:33.747Z,100956
2018-04-24T11:37:02.827Z,100970
2018-04-24T11:39:30.927Z,100967
2018-04-24T11:41:59.306Z,100971
2018-04-24T11:44:27.420Z,100907
2018-04-24T11:46:55.649Z,100973
2018-04-24T11:49:25.834Z,100975
2018-04-24T11:51:54.598Z,100979
2018-04-24T11:54:23.120Z,100973
2018-04-24T11:56:51.412Z,100975
2018-04-24T11:59:19.632Z,100981
2018-04-24T12:01:48.412Z,100982
2018-04-24T12:04:16.525Z,100976
2018-04-24T12:06:46.192Z,100969
2018-04-24T12:09:14.327Z,100973
2018-04-24T12:11:42.709Z,100965
2018-04-24T12:14:11.637Z,100958
2018-04-24T12:16:44.531Z,100961
2018-04-24T12:19:12.651Z,100958
2018-04-24T12:21:40.826Z,100957
2018-04-24T12:24:09.940Z,100965
2018-04-24T12:26:38.100Z,100960
2018-04-24T12:29:06.948Z,100963
2018-04-24T12:31:36.150Z,100956
2018-04-24T12:34:05.970Z,100959
2018-04-24T12:36:34.884Z,100960
2018-04-24T12:39:02.951Z,100959
2018-04-24T12:41:33.318Z,100957
2018-04-24T12:44:01.625Z,100945
2018-04-24T12:46:29.701Z,100944
2018-04-24T12:48:58.361Z,100948
2018-04-24T12:51:26.451Z,100944
2018-04-24T12:53:54.551Z,100932
2018-04-24T12:56:22.996Z,100929
2018-04-24T12:58:53.437Z,100942
2018-04-24T13:01:21.740Z,100936
2018-04-24T13:03:50.081Z,100930
2018-04-24T13:06:18.499Z,100938
2018-04-24T13:08:47.318Z,100942
2018-04-24T13:11:15.475Z,100928
2018-04-24T13:13:44.472Z,100914
2018-04-24T13:16:15.467Z,100912
2018-04-24T13:18:43.756Z,100909
2018-04-24T13:21:11.891Z,100903
2018-04-24T13:23:40.003Z,100898
2018-04-24T13:26:08.074Z,100897
2018-04-24T13:28:36.220Z,100891
2018-04-24T13:31:04.318Z,100898
2018-04-24T13:33:32.661Z,100906
2018-04-24T13:36:00.944Z,100899
2018-04-24T13:38:29.038Z,100898
2018-04-24T13:40:57.792Z,100888
2018-04-24T13:43:26.102Z,100888
2018-04-24T13:45:54.408Z,100876
2018-04-24T13:48:25.181Z,100875
2018-04-24T13:50:54.153Z,100867
2018-04-24T13:53:22.671Z,100873
2018-04-24T13:55:50.929Z,100871
2018-04-24T13:58:19.259Z,100873
2018-04-24T14:00:48.006Z,100874
2018-04-24T14:03:17.064Z,100862
2018-04-24T14:05:45.187Z,100854
2018-04-24T14:08:13.495Z,100853
2018-04-24T14:10:41.612Z,100848
2018-04-24T14:13:09.817Z,100854
2018-04-24T14:15:38.010Z,100849
2018-04-24T14:18:06.877Z,100848
2018-04-24T14:20:34.972Z,100852
2018-04-24T14:23:04.657Z,100837
2018-04-24T14:25:33.575Z,100844
2018-04-24T14:28:02.150Z,100838
2018-04-24T14:30:30.939Z,100826
2018-04-24T14:32:59.810Z,100845
2018-04-24T14:35:28.325Z,100843
2018-04-24T14:37:57.350Z,100821
2018-04-24T14:40:27.608Z,100819
2018-04-24T14:42:55.969Z,100815
2018-04-24T14:45:24.769Z,100819
2018-04-24T14:47:53.683Z,100808
2018-04-24T14:50:22.248Z,100806
2018-04-24T14:52:51.753Z,100801
2018-04-24T14:55:20.689Z,100790
2018-04-24T14:57:48.771Z,100795
2018-04-24T15:00:17.702Z,100795
2018-04-24T15:02:46.999Z,100779
2018-04-24T15:05:19.325Z,100792
2018-04-24T15:07:48.411Z,100781
2018-04-24T15:10:16.692Z,100776
2018-04-24T15:12:45.028Z,100775
2018-04-24T15:15:13.489Z,100773
2018-04-24T15:17:44.872Z,100762
2018-04-24T15:20:13.008Z,100765
2018-04-24T15:22:41.871Z,100761
2018-04-24T15:25:10.097Z,100749
2018-04-24T15:27:38.970Z,100735
2018-04-24T15:30:07.281Z,100737
2018-04-24T15:32:35.626Z,100735
2018-04-24T15:35:03.939Z,100725
2018-04-24T15:37:31.949Z,100726
2018-04-24T15:40:00.771Z,100711
2018-04-24T15:42:28.877Z,100725
2018-04-24T15:44:56.971Z,100722
2018-04-24T15:47:25.047Z,100714
2018-04-24T15:49:53.484Z,100725
2018-04-24T15:52:22.353Z,100715
2018-04-24T15:54:50.581Z,100710
2018-04-24T15:57:19.660Z,100693
2018-04-24T15:59:49.807Z,100703
2018-04-24T16:02:18.260Z,100696
2018-04-24T16:04:46.818Z,100704
2018-04-24T16:07:15.080Z,100708
2018-04-24T16:09:43.413Z,100712
2018-04-24T16:12:12.546Z,100706
2018-04-24T16:14:41.111Z,100706
2018-04-24T16:17:09.379Z,100709
2018-04-24T16:19:38.960Z,100695
2018-04-24T16:22:08.309Z,100707
2018-04-24T16:24:36.824Z,100701
2018-04-24T16:27:05.716Z,100699
2018-04-24T16:29:37.341Z,100705
2018-04-24T16:32:06.080Z,100704
2018-04-24T16:34:34.283Z,100702
2018-04-24T16:37:03.197Z,100707
2018-04-24T16:39:31.600Z,100699
2018-04-24T16:42:00.411Z,100696
2018-04-24T16:44:29.774Z,100686
2018-04-24T16:46:58.118Z,100691
2018-04-24T16:49:26.408Z,100684
2018-04-24T16:51:55.292Z,100679
2018-04-24T16:54:25.848Z,100669
2018-04-24T16:56:54.457Z,100666
2018-04-24T16:59:28.576Z,100658
2018-04-24T17:01:56.884Z,100649
2018-04-24T17:04:26.965Z,100654
2018-04-24T17:06:55.973Z,100651
2018-04-24T17:09:24.821Z,100652
2018-04-24T17:11:55.463Z,100649
2018-04-24T17:14:24.323Z,100655
2018-04-24T17:16:53.277Z,100647
2018-04-24T17:19:21.604Z,100646
2018-04-24T17:21:54.055Z,100644
2018-04-24T17:24:22.584Z,100640
2018-04-24T17:26:50.900Z,100644
2018-04-24T17:29:19.242Z,100646
2018-04-24T17:31:48.032Z,100638
2018-04-24T17:34:16.847Z,100627
2018-04-24T17:36:45.048Z,100633
2018-04-24T17:39:14.196Z,100636
2018-04-24T17:41:42.590Z,100626
2018-04-24T17:44:12.873Z,100621
2018-04-24T17:46:41.043Z,100616
2018-04-24T17:49:10.571Z,100612
2018-04-24T17:51:38.876Z,100614
2018-04-24T17:54:07.961Z,100617
2018-04-24T17:56:36.045Z,100615
2018-04-24T17:59:05.144Z,100614
2018-04-24T18:01:34.088Z,100604
2018-04-24T18:04:02.898Z,100607
2018-04-24T18:06:32.117Z,100608
2018-04-24T18:09:03.049Z,100608
2018-04-24T18:11:32.880Z,100603
2018-04-24T18:14:01.292Z,100600
2018-04-24T18:16:29.621Z,100597
2018-04-24T18:19:01.165Z,100603
2018-04-24T18:21:29.571Z,100609
2018-04-24T18:23:58.280Z,100606
2018-04-24T18:26:26.556Z,100603
2018-04-24T18:28:55.631Z,100604
2018-04-24T18:31:24.020Z,100606
2018-04-24T18:33:52.792Z,100596
2018-04-24T18:36:21.244Z,100609
2018-04-24T18:38:49.738Z,100608
2018-04-24T18:41:19.529Z,100606
2018-04-24T18:43:47.860Z,100596
2018-04-24T18:46:16.894Z,100597
2018-04-24T18:48:45.425Z,100600
2018-04-24T18:51:14.312Z,100598
2018-04-24T18:53:43.515Z,100600
2018-04-24T18:56:11.894Z,100594
2018-04-24T18:58:40.191Z,100594
2018-04-24T19:01:09.050Z,100601
2018-04-24T19:03:39.336Z,100589
2018-04-24T19:06:07.457Z,100594
2018-04-24T19:08:37.233Z,100592
2018-04-24T19:11:05.579Z,100583
2018-04-24T19:13:34.716Z,100601
2018-04-24T19:16:06.369Z,100586
2018-04-24T19:18:40.985Z,100580
2018-04-24T19:21:09.186Z,100587
2018-04-24T19:23:38.004Z,100581
2018-04-24T19:26:08.229Z,100570
2018-04-24T19:28:37.640Z,100568
2018-04-24T19:31:12.640Z,100573
2018-04-24T19:33:40.853Z,100568
2018-04-24T19:36:10.013Z,100568
2018-04-24T19:38:39.642Z,100570
2018-04-24T19:41:14.260Z,100575
2018-04-24T19:43:44.649Z,100571
2018-04-24T19:46:13.568Z,100569
2018-04-24T19:48:50.308Z,100576
2018-04-24T19:51:20.120Z,100574
2018-04-24T19:53:48.631Z,100567
2018-04-24T19:56:19.159Z,100570
2018-04-24T19:58:49.893Z,100562
2018-04-24T20:01:18.034Z,100563
2018-04-24T20:03:47.301Z,100566
2018-04-24T20:06:17.957Z,100559
2018-04-24T20:08:48.228Z,100560
2018-04-24T20:11:20.740Z,100560
2018-04-24T20:13:49.257Z,100545
2018-04-24T20:16:19.061Z,100544
2018-04-24T20:18:47.969Z,100550
2018-04-24T20:21:18.427Z,100539
2018-04-24T20:23:48.276Z,100538
2018-04-24T20:26:21.179Z,100541
2018-04-24T20:28:50.309Z,100540
2018-04-24T20:31:18.704Z,100536
2018-04-24T20:33:48.935Z,100526
2018-04-24T20:36:18.288Z,100517
2018-04-24T20:38:48.705Z,100517
2018-04-24T20:41:19.042Z,100506
2018-04-24T20:43:48.037Z,100506
2018-04-24T20:46:19.837Z,100497
2018-04-24T20:48:48.264Z,100499
2018-04-24T20:51:19.045Z,100494
2018-04-24T20:53:47.924Z,100492
2018-04-24T20:56:23.903Z,100482
2018-04-24T20:58:53.103Z,100482
2018-04-24T21:01:25.881Z,100481
2018-04-24T21:03:54.984Z,100472
2018-04-24T21:06:23.172Z,100462
2018-04-24T21:08:52.135Z,100458
2018-04-24T21:11:20.326Z,100452
2018-04-24T21:13:50.923Z,100457
2018-04-24T21:16:19.021Z,100447
2018-04-24T21:18:47.334Z,100433
2018-04-24T21:21:15.680Z,100431
2018-04-24T21:23:45.360Z,100428
2018-04-24T21:26:14.319Z,100425
2018-04-24T21:28:42.631Z,100427
2018-04-24T21:31:11.128Z,100430
2018-04-24T21:33:39.233Z,100414
2018-04-24T21:36:08.314Z,100418
2018-04-24T21:38:36.677Z,100424
2018-04-24T21:41:05.439Z,100410
2018-04-24T21:43:33.526Z,100403
2018-04-24T21:46:03.519Z,100401
2018-04-24T21:48:33.327Z,100388
2018-04-24T21:51:02.437Z,100400
2018-04-24T21:53:30.744Z,100391
2018-04-24T21:55:58.888Z,100385
2018-04-24T21:58:27.771Z,100390
2018-04-24T22:00:57.179Z,100394
2018-04-24T22:03:25.262Z,100383
2018-04-24T22:05:53.372Z,100370
2018-04-24T22:08:22.240Z,100370
2018-04-24T22:10:50.508Z,100370
2018-04-24T22:13:18.667Z,100371
2018-04-24T22:15:47.603Z,100362
2018-04-24T22:18:16.448Z,100361
2018-04-24T22:20:45.696Z,100357
2018-04-24T22:23:15.900Z,100345
2018-04-24T22:25:44.026Z,100347
2018-04-24T22:28:12.125Z,100339
2018-04-24T22:30:40.480Z,100333
2018-04-24T22:33:09.608Z,100332
2018-04-24T22:35:37.748Z,100334
2018-04-24T22:38:06.119Z,100333
2018-04-24T22:40:34.537Z,100321
2018-04-24T22:43:02.586Z,100323
2018-04-24T22:45:30.767Z,100320
2018-04-24T22:48:00.091Z,100319
2018-04-24T22:50:28.275Z,100313
2018-04-24T22:52:56.435Z,100312
2018-04-24T22:55:24.531Z,100297
2018-04-24T22:57:52.635Z,100294
2018-04-24T23:00:20.950Z,100289
2018-04-24T23:02:49.131Z,100292
2018-04-24T23:05:17.393Z,100303
2018-04-24T23:07:46.265Z,100288
2018-04-24T23:10:14.359Z,100291
2018-04-24T23:13:00.968Z,100285
2018-04-24T23:15:47.244Z,100286
2018-04-24T23:18:32.893Z,100286
2018-04-24T23:21:02.064Z,100277
2018-04-24T23:23:31.119Z,100284
2018-04-24T23:25:59.941Z,100269
2018-04-24T23:28:29.724Z,100269
2018-04-24T23:30:57.800Z,100271
2018-04-24T23:33:26.600Z,100261
2018-04-24T23:35:54.679Z,100249
2018-04-24T23:38:22.779Z,100236
2018-04-24T23:40:51.838Z,100230
2018-04-24T23:43:19.918Z,100230
2018-04-24T23:45:48.008Z,100229
2018-04-24T23:48:21.474Z,100219
2018-04-24T23:50:50.257Z,100219
2018-04-24T23:53:19.552Z,100221
2018-04-24T23:55:47.636Z,100223
2018-04-24T23:58:16.471Z,100207
